Time;durP1;ratioP1;P1;durP2;ratioP2;P2;SDS_P1;SDS_P2;PMS_P1;PMS_P2;Temp;Humidity;BMP_temperature;BMP_pressure;BME280_temperature;BME280_humidity;BME280_pressure;Samples;Min_cycle;Max_cycle;Signal;HPM_P1;HPM_P2
2021/12/07 00:02:06;;;;;;;11.20;5.90;;;;;;;;;;4960839;28;20031;-71
2021/12/07 00:04:31;;;;;;;10.07;6.00;;;;;;;;;;4972298;28;20031;-70
2021/12/07 00:06:57;;;;;;;9.57;5.78;;;;;;;;;;4972941;28;20063;-72
2021/12/07 00:09:22;;;;;;;6.55;5.47;;;;;;;;;;4970768;28;20407;-71
2021/12/07 00:11:48;;;;;;;10.75;6.50;;;;;;;;;;4963883;28;20027;-71
2021/12/07 00:14:15;;;;;;;7.93;5.95;;;;;;;;;;4956065;28;20023;-71
2021/12/07 00:16:42;;;;;;;6.93;5.05;;;;;;;;;;4965215;28;20015;-71
2021/12/07 00:19:07;;;;;;;10.20;5.18;;;;;;;;;;4962588;28;20086;-71
2021/12/07 00:21:33;;;;;;;8.85;5.50;;;;;;;;;;4970283;28;20392;-70
2021/12/07 00:23:58;;;;;;;10.13;5.38;;;;;;;;;;4959499;28;20034;-70
2021/12/07 00:26:23;;;;;;;7.88;5.50;;;;;;;;;;4969754;28;20030;-71
2021/12/07 00:28:50;;;;;;;8.50;4.55;;;;;;;;;;4957629;28;20123;-71
2021/12/07 00:31:25;;;;;;;7.55;5.40;;;;;;;;;;4954303;28;20058;-71
2021/12/07 00:34:06;;;;;;;5.55;4.45;;;;;;;;;;4956042;28;20436;-71
2021/12/07 00:36:31;;;;;;;5.30;3.85;;;;;;;;;;4962087;28;20082;-71
2021/12/07 00:38:56;;;;;;;5.15;3.78;;;;;;;;;;4968343;28;20062;-71
2021/12/07 00:41:22;;;;;;;6.13;4.10;;;;;;;;;;4965815;28;20031;-71
2021/12/07 00:43:47;;;;;;;6.88;3.83;;;;;;;;;;4967589;28;20025;-71
2021/12/07 00:46:12;;;;;;;8.45;4.47;;;;;;;;;;4973310;28;20410;-71
2021/12/07 00:48:38;;;;;;;6.65;4.53;;;;;;;;;;4967289;28;20022;-71
2021/12/07 00:51:03;;;;;;;6.90;4.38;;;;;;;;;;4965866;28;20034;-71
2021/12/07 00:53:28;;;;;;;9.40;4.68;;;;;;;;;;4973716;28;20026;-71
2021/12/07 00:56:00;;;;;;;6.43;4.95;;;;;;;;;;4962962;28;20033;-71
2021/12/07 00:58:26;;;;;;;7.30;4.93;;;;;;;;;;4961215;28;20046;-71
2021/12/07 01:00:56;;;;;;;9.73;4.90;;;;;;;;;;4954034;28;20538;-71
2021/12/07 01:03:22;;;;;;;6.80;4.43;;;;;;;;;;4968511;28;20026;-70
2021/12/07 01:05:51;;;;;;;6.35;4.22;;;;;;;;;;4974434;28;20089;-71
2021/12/07 01:24:42;;;;;;;4.57;3.65;;;;;;;;;;4973917;28;20516;-71
2021/12/07 01:27:16;;;;;;;3.97;3.47;;;;;;;;;;4974143;28;20054;-71
2021/12/07 01:29:43;;;;;;;4.60;3.30;;;;;;;;;;4972824;28;20029;-71
2021/12/07 01:32:32;;;;;;;6.10;3.33;;;;;;;;;;4973357;28;20093;-71
2021/12/07 01:35:37;;;;;;;6.25;3.58;;;;;;;;;;4965612;28;20131;-71
2021/12/07 02:01:38;;;;;;;3.80;2.08;;;;;;;;;;4951190;28;20038;-70
2021/12/07 02:04:04;;;;;;;3.30;2.20;;;;;;;;;;4952939;28;20035;-70
2021/12/07 02:06:29;;;;;;;2.00;1.83;;;;;;;;;;4952810;28;20069;-71
2021/12/07 02:08:54;;;;;;;2.22;1.52;;;;;;;;;;4954025;29;20031;-71
2021/12/07 02:11:20;;;;;;;1.77;1.67;;;;;;;;;;4954524;28;20027;-71
2021/12/07 02:16:12;;;;;;;3.83;2.03;;;;;;;;;;4952137;29;20525;-71
2021/12/07 02:18:37;;;;;;;2.05;1.63;;;;;;;;;;4954114;28;20094;-71
2021/12/07 02:21:20;;;;;;;2.05;1.90;;;;;;;;;;4944384;28;20130;-71
2021/12/07 02:23:46;;;;;;;2.70;2.05;;;;;;;;;;4953198;29;20034;-70
2021/12/07 02:26:11;;;;;;;4.00;1.90;;;;;;;;;;4950438;29;20031;-71
2021/12/07 02:28:39;;;;;;;2.30;1.65;;;;;;;;;;4953516;28;20395;-71
2021/12/07 02:31:05;;;;;;;1.77;1.40;;;;;;;;;;4950136;28;20122;-70
2021/12/07 02:33:31;;;;;;;2.10;1.63;;;;;;;;;;4953531;28;20023;-71
2021/12/07 02:35:56;;;;;;;1.92;1.42;;;;;;;;;;4951892;29;20050;-70
2021/12/07 02:38:21;;;;;;;6.28;1.85;;;;;;;;;;4948907;28;20031;-70
2021/12/07 02:40:48;;;;;;;1.50;1.40;;;;;;;;;;4952096;29;20034;-70
2021/12/07 02:43:13;;;;;;;1.40;1.30;;;;;;;;;;4953978;29;20434;-71
2021/12/07 02:45:38;;;;;;;2.42;1.70;;;;;;;;;;4953287;29;20062;-71
2021/12/07 02:48:04;;;;;;;1.88;1.65;;;;;;;;;;4953314;28;20055;-71
2021/12/07 02:50:29;;;;;;;1.65;1.50;;;;;;;;;;4953462;29;20057;-71
2021/12/07 02:52:54;;;;;;;2.08;1.52;;;;;;;;;;4953375;29;20051;-70
2021/12/07 02:55:20;;;;;;;3.83;1.60;;;;;;;;;;4951025;29;20073;-70
2021/12/07 02:57:46;;;;;;;2.30;1.80;;;;;;;;;;4952215;28;20019;-70
2021/12/07 03:00:17;;;;;;;2.92;1.83;;;;;;;;;;4951118;28;20035;-71
2021/12/07 03:02:49;;;;;;;1.63;1.45;;;;;;;;;;4951716;29;20027;-70
2021/12/07 03:27:10;;;;;;;2.25;2.05;;;;;;;;;;4950203;29;20394;-70
2021/12/07 03:29:36;;;;;;;1.70;1.60;;;;;;;;;;4951442;29;20031;-70
2021/12/07 03:32:01;;;;;;;2.53;1.80;;;;;;;;;;4950850;28;20107;-70
2021/12/07 03:34:26;;;;;;;1.88;1.77;;;;;;;;;;4951699;29;20027;-70
2021/12/07 03:36:52;;;;;;;2.38;1.70;;;;;;;;;;4953043;28;20023;-70
2021/12/07 03:39:17;;;;;;;2.83;1.88;;;;;;;;;;4952163;29;20023;-70
2021/12/07 03:41:43;;;;;;;1.77;1.67;;;;;;;;;;4951697;29;20043;-70
2021/12/07 03:44:08;;;;;;;2.58;1.95;;;;;;;;;;4953048;29;20118;-70
2021/12/07 03:46:33;;;;;;;1.65;1.55;;;;;;;;;;4948795;29;20046;-70
2021/12/07 03:48:59;;;;;;;1.50;1.40;;;;;;;;;;4951045;29;20061;-70
2021/12/07 03:51:24;;;;;;;1.52;1.42;;;;;;;;;;4949797;29;20043;-70
2021/12/07 03:53:49;;;;;;;2.88;1.38;;;;;;;;;;4951262;29;20061;-70
2021/12/07 03:56:15;;;;;;;2.00;1.80;;;;;;;;;;4951583;29;20062;-69
2021/12/07 03:58:41;;;;;;;1.63;1.52;;;;;;;;;;4953102;28;20470;-70
2021/12/07 04:01:07;;;;;;;2.33;1.60;;;;;;;;;;4951719;28;20034;-70
2021/12/07 04:03:34;;;;;;;1.30;1.30;;;;;;;;;;4945971;29;20027;-71
2021/12/07 04:06:04;;;;;;;1.40;1.30;;;;;;;;;;4952724;28;20513;-70
2021/12/07 04:08:30;;;;;;;1.60;1.40;;;;;;;;;;4951645;29;20031;-70
2021/12/07 04:10:55;;;;;;;1.60;1.30;;;;;;;;;;4952952;28;20034;-70
2021/12/07 04:13:21;;;;;;;1.42;1.10;;;;;;;;;;4951831;28;20450;-70
2021/12/07 04:15:46;;;;;;;1.35;1.27;;;;;;;;;;4949505;28;20106;-70
2021/12/07 04:18:12;;;;;;;1.02;1.02;;;;;;;;;;4952795;29;20042;-70
2021/12/07 04:20:37;;;;;;;0.88;0.77;;;;;;;;;;4948614;28;20027;-70
2021/12/07 04:23:03;;;;;;;1.52;1.10;;;;;;;;;;4952176;28;20042;-70
2021/12/07 04:25:28;;;;;;;1.73;0.95;;;;;;;;;;4952549;28;20027;-71
2021/12/07 04:27:54;;;;;;;2.38;1.00;;;;;;;;;;4952535;28;20027;-71
2021/12/07 04:30:30;;;;;;;1.00;1.00;;;;;;;;;;4954252;28;20027;-71
2021/12/07 04:32:57;;;;;;;1.00;1.00;;;;;;;;;;4959129;28;20027;-71
2021/12/07 04:35:23;;;;;;;0.80;0.80;;;;;;;;;;4954078;28;20030;-71
2021/12/07 04:37:48;;;;;;;0.70;0.70;;;;;;;;;;4954730;29;20023;-71
2021/12/07 04:40:17;;;;;;;0.88;0.88;;;;;;;;;;4955765;28;20027;-71
2021/12/07 04:42:43;;;;;;;0.90;0.90;;;;;;;;;;4954708;28;20027;-71
2021/12/07 04:45:13;;;;;;;0.80;0.80;;;;;;;;;;4953986;28;20425;-71
2021/12/07 04:47:56;;;;;;;1.00;0.90;;;;;;;;;;4951312;28;20513;-69
2021/12/07 04:58:20;;;;;;;0.90;0.90;;;;;;;;;;4953107;28;20039;-69
2021/12/07 05:00:46;;;;;;;0.82;0.82;;;;;;;;;;4950611;28;20036;-69
2021/12/07 05:03:13;;;;;;;1.25;1.00;;;;;;;;;;4963011;28;20038;-69
2021/12/07 05:05:45;;;;;;;0.70;0.70;;;;;;;;;;4950929;28;20031;-69
2021/12/07 05:08:14;;;;;;;1.92;0.95;;;;;;;;;;4948799;29;20062;-69
2021/12/07 05:39:47;;;;;;;1.05;1.05;;;;;;;;;;4954053;28;20466;-69
2021/12/07 05:42:13;;;;;;;0.85;0.85;;;;;;;;;;4954126;29;20041;-69
2021/12/07 05:44:38;;;;;;;1.05;1.05;;;;;;;;;;4953212;29;20394;-69
2021/12/07 05:47:04;;;;;;;0.98;0.98;;;;;;;;;;4950937;29;20027;-69
2021/12/07 05:49:29;;;;;;;2.38;1.10;;;;;;;;;;4952461;29;20066;-69
2021/12/07 05:51:55;;;;;;;1.23;1.00;;;;;;;;;;4954632;28;20054;-69
2021/12/07 05:54:20;;;;;;;1.30;1.25;;;;;;;;;;4954937;29;20031;-69
2021/12/07 05:56:45;;;;;;;1.20;1.20;;;;;;;;;;4952724;28;20087;-68
2021/12/07 05:59:11;;;;;;;1.00;1.00;;;;;;;;;;4953807;29;20031;-69
2021/12/07 06:01:36;;;;;;;1.25;1.15;;;;;;;;;;4948587;28;20039;-69
2021/12/07 06:04:01;;;;;;;1.10;1.10;;;;;;;;;;4954622;29;20034;-69
2021/12/07 06:06:27;;;;;;;1.17;1.17;;;;;;;;;;4953012;28;20027;-69
2021/12/07 06:08:52;;;;;;;1.40;1.30;;;;;;;;;;4954415;28;20332;-69
2021/12/07 06:11:21;;;;;;;1.73;1.40;;;;;;;;;;4954629;28;20550;-69
2021/12/07 06:13:47;;;;;;;1.20;1.20;;;;;;;;;;4954333;28;20046;-69
2021/12/07 06:16:14;;;;;;;1.30;1.30;;;;;;;;;;4953744;29;20462;-69
2021/12/07 06:18:40;;;;;;;1.70;1.50;;;;;;;;;;4949163;28;20090;-68
2021/12/07 06:21:05;;;;;;;1.30;1.30;;;;;;;;;;4954025;29;20027;-68
2021/12/07 06:23:30;;;;;;;1.58;1.48;;;;;;;;;;4954506;29;20023;-68
2021/12/07 06:25:58;;;;;;;1.50;1.40;;;;;;;;;;4953750;29;20031;-68
2021/12/07 06:28:23;;;;;;;1.70;1.60;;;;;;;;;;4952196;29;20037;-68
2021/12/07 06:30:48;;;;;;;2.25;1.58;;;;;;;;;;4953359;28;20031;-69
2021/12/07 06:33:16;;;;;;;1.63;1.52;;;;;;;;;;4954288;28;20055;-68
2021/12/07 06:35:41;;;;;;;3.72;1.30;;;;;;;;;;4951531;29;20074;-68
2021/12/07 06:38:06;;;;;;;1.40;1.30;;;;;;;;;;4952876;28;20023;-69
2021/12/07 06:40:32;;;;;;;1.50;1.40;;;;;;;;;;4954036;29;20023;-69
2021/12/07 06:42:59;;;;;;;1.80;1.70;;;;;;;;;;4953861;29;20078;-69
2021/12/07 06:45:25;;;;;;;1.70;1.60;;;;;;;;;;4953114;28;20027;-69
2021/12/07 06:47:50;;;;;;;1.52;1.42;;;;;;;;;;4952955;28;20390;-69
2021/12/07 06:50:16;;;;;;;1.70;1.60;;;;;;;;;;4951589;28;20031;-69
2021/12/07 06:52:41;;;;;;;1.70;1.50;;;;;;;;;;4950273;28;20050;-69
2021/12/07 06:55:07;;;;;;;1.30;1.30;;;;;;;;;;4952140;29;20023;-69
2021/12/07 06:57:32;;;;;;;1.63;1.52;;;;;;;;;;4951801;29;20578;-69
2021/12/07 06:59:57;;;;;;;1.65;1.55;;;;;;;;;;4951320;28;20079;-69
2021/12/07 07:02:22;;;;;;;2.08;1.60;;;;;;;;;;4970108;28;20038;-69
2021/12/07 07:04:48;;;;;;;1.50;1.40;;;;;;;;;;4970158;28;20405;-69
2021/12/07 07:07:13;;;;;;;2.33;1.60;;;;;;;;;;4971904;28;20056;-69
2021/12/07 07:09:39;;;;;;;1.60;1.50;;;;;;;;;;4972256;28;20110;-69
2021/12/07 07:12:04;;;;;;;1.60;1.50;;;;;;;;;;4969309;28;20038;-69
2021/12/07 07:14:30;;;;;;;3.13;1.67;;;;;;;;;;4972533;28;20027;-69
2021/12/07 07:16:55;;;;;;;1.80;1.67;;;;;;;;;;4953436;28;20443;-69
2021/12/07 07:19:20;;;;;;;2.22;1.85;;;;;;;;;;4971468;28;20474;-69
2021/12/07 07:21:46;;;;;;;1.70;1.60;;;;;;;;;;4972746;28;20022;-69
2021/12/07 07:24:11;;;;;;;1.83;1.70;;;;;;;;;;4972803;28;20031;-68
2021/12/07 07:26:36;;;;;;;3.72;1.50;;;;;;;;;;4970277;28;20043;-69
2021/12/07 07:29:02;;;;;;;1.80;1.70;;;;;;;;;;4971530;28;20472;-69
2021/12/07 07:31:27;;;;;;;3.45;1.50;;;;;;;;;;4970325;28;20053;-69
2021/12/07 07:33:54;;;;;;;4.50;1.90;;;;;;;;;;4971589;28;20386;-69
2021/12/07 07:36:20;;;;;;;1.60;1.50;;;;;;;;;;4971827;28;20521;-70
2021/12/07 07:38:45;;;;;;;3.22;1.70;;;;;;;;;;4970218;28;20066;-69
2021/12/07 07:41:11;;;;;;;2.47;1.88;;;;;;;;;;4963854;28;20038;-69
2021/12/07 07:43:36;;;;;;;2.53;1.80;;;;;;;;;;4968145;28;20066;-69
2021/12/07 07:46:01;;;;;;;2.30;2.10;;;;;;;;;;4968592;28;20094;-69
2021/12/07 07:48:27;;;;;;;2.75;1.70;;;;;;;;;;4970750;28;20035;-69
2021/12/07 07:50:52;;;;;;;2.45;2.03;;;;;;;;;;4969449;28;20026;-69
2021/12/07 07:53:18;;;;;;;2.20;2.00;;;;;;;;;;4970494;28;20038;-69
2021/12/07 07:55:43;;;;;;;1.80;1.70;;;;;;;;;;4969517;28;20548;-69
2021/12/07 07:58:09;;;;;;;2.22;1.73;;;;;;;;;;4964413;28;20541;-69
2021/12/07 08:00:34;;;;;;;1.83;1.73;;;;;;;;;;4970364;28;20038;-69
2021/12/07 08:03:00;;;;;;;1.98;1.73;;;;;;;;;;4974677;28;20113;-70
2021/12/07 08:05:25;;;;;;;2.50;1.90;;;;;;;;;;4975536;28;20031;-68
2021/12/07 08:07:51;;;;;;;2.20;2.00;;;;;;;;;;4972981;28;20061;-69
2021/12/07 08:10:21;;;;;;;2.20;2.00;;;;;;;;;;4986303;28;20047;-70
2021/12/07 08:12:47;;;;;;;3.47;2.00;;;;;;;;;;4974235;28;20030;-71
2021/12/07 08:15:12;;;;;;;2.40;1.80;;;;;;;;;;4973159;28;20057;-69
2021/12/07 08:17:38;;;;;;;3.42;1.92;;;;;;;;;;4972611;28;20022;-69
2021/12/07 08:20:03;;;;;;;2.00;1.80;;;;;;;;;;4987718;28;20043;-69
2021/12/07 08:22:30;;;;;;;4.07;1.95;;;;;;;;;;4972710;28;21204;-69
2021/12/07 08:24:56;;;;;;;2.67;1.95;;;;;;;;;;4974608;28;20378;-68
2021/12/07 08:27:21;;;;;;;3.30;2.03;;;;;;;;;;4975212;28;20031;-69
2021/12/07 08:29:47;;;;;;;3.30;2.00;;;;;;;;;;4975788;28;20030;-69
2021/12/07 08:32:12;;;;;;;1.92;1.83;;;;;;;;;;4966147;28;20267;-69
2021/12/07 08:34:37;;;;;;;4.25;2.13;;;;;;;;;;4972310;28;20035;-69
2021/12/07 08:37:03;;;;;;;2.00;1.90;;;;;;;;;;4975062;28;20023;-69
2021/12/07 08:39:29;;;;;;;2.05;1.85;;;;;;;;;;4975933;28;20054;-69
2021/12/07 08:41:54;;;;;;;2.13;1.92;;;;;;;;;;4974933;28;20035;-69
2021/12/07 08:44:19;;;;;;;1.80;1.70;;;;;;;;;;4975397;28;20506;-70
2021/12/07 08:46:44;;;;;;;3.38;2.05;;;;;;;;;;4974959;28;20121;-70
2021/12/07 08:49:10;;;;;;;5.25;2.00;;;;;;;;;;4975305;28;20121;-69
2021/12/07 08:51:38;;;;;;;2.10;1.90;;;;;;;;;;4970971;28;20474;-70
2021/12/07 08:54:22;;;;;;;2.97;1.73;;;;;;;;;;4972441;28;20989;-70
2021/12/07 08:59:40;;;;;;;3.45;1.73;;;;;;;;;;4962344;28;20774;-70
2021/12/07 09:02:06;;;;;;;1.70;1.60;;;;;;;;;;4967865;28;20026;-70
2021/12/07 09:04:31;;;;;;;2.17;1.60;;;;;;;;;;4972274;28;20146;-70
2021/12/07 09:06:57;;;;;;;5.05;2.00;;;;;;;;;;4973477;28;20034;-70
2021/12/07 09:09:22;;;;;;;3.97;1.90;;;;;;;;;;4973530;28;20074;-70
2021/12/07 09:11:47;;;;;;;9.20;2.00;;;;;;;;;;4974844;28;20029;-70
2021/12/07 09:14:15;;;;;;;2.75;1.80;;;;;;;;;;4974160;28;20031;-70
2021/12/07 09:16:41;;;;;;;3.35;1.77;;;;;;;;;;4985831;28;20070;-70
2021/12/07 09:19:06;;;;;;;2.05;1.85;;;;;;;;;;4975091;28;20478;-70
2021/12/07 09:21:32;;;;;;;2.13;1.75;;;;;;;;;;4973922;28;20070;-70
2021/12/07 09:23:57;;;;;;;2.33;1.70;;;;;;;;;;4958907;28;20065;-70
2021/12/07 09:26:22;;;;;;;4.25;2.13;;;;;;;;;;4957692;28;20035;-70
2021/12/07 09:28:48;;;;;;;1.95;1.85;;;;;;;;;;4971740;28;20030;-70
2021/12/07 09:31:13;;;;;;;2.35;1.85;;;;;;;;;;4973782;28;20557;-70
2021/12/07 09:33:41;;;;;;;1.75;1.65;;;;;;;;;;4974494;28;20027;-70
2021/12/07 09:36:06;;;;;;;4.80;2.05;;;;;;;;;;4974391;28;20505;-70
2021/12/07 09:38:31;;;;;;;2.03;1.80;;;;;;;;;;4973079;28;20023;-69
2021/12/07 09:40:57;;;;;;;1.85;1.60;;;;;;;;;;4971324;28;20041;-70
2021/12/07 09:43:22;;;;;;;6.35;2.05;;;;;;;;;;4974745;28;20366;-70
2021/12/07 09:45:47;;;;;;;1.90;1.70;;;;;;;;;;4973870;28;20540;-70
2021/12/07 09:48:13;;;;;;;2.00;1.80;;;;;;;;;;4972953;28;20023;-70
2021/12/07 09:50:43;;;;;;;3.53;1.98;;;;;;;;;;4966447;28;20019;-70
2021/12/07 09:53:09;;;;;;;3.10;1.73;;;;;;;;;;4971751;28;20027;-70
2021/12/07 09:55:35;;;;;;;3.53;1.75;;;;;;;;;;4967011;28;20027;-70
2021/12/07 09:58:01;;;;;;;3.08;2.00;;;;;;;;;;4980747;28;20015;-70
2021/12/07 10:00:26;;;;;;;7.65;1.80;;;;;;;;;;4968897;28;20118;-70
2021/12/07 10:02:52;;;;;;;4.05;2.10;;;;;;;;;;4973212;28;20026;-70
2021/12/07 10:05:19;;;;;;;1.60;1.50;;;;;;;;;;4958397;28;20111;-70
2021/12/07 10:07:48;;;;;;;4.05;1.80;;;;;;;;;;4973789;28;20023;-70
2021/12/07 10:10:24;;;;;;;5.95;1.98;;;;;;;;;;4973970;28;20094;-69
2021/12/07 10:12:50;;;;;;;2.42;1.80;;;;;;;;;;4971010;28;20027;-70
2021/12/07 10:15:16;;;;;;;2.42;1.50;;;;;;;;;;4973448;28;20386;-70
2021/12/07 10:17:42;;;;;;;3.72;1.85;;;;;;;;;;4958447;28;20542;-70
2021/12/07 10:20:42;;;;;;;12.70;2.00;;;;;;;;;;4973313;28;20027;-70
2021/12/07 10:23:14;;;;;;;1.70;1.60;;;;;;;;;;4973807;28;20081;-70
2021/12/07 10:25:43;;;;;;;3.15;1.70;;;;;;;;;;4968634;28;20034;-70
2021/12/07 10:28:24;;;;;;;2.03;1.40;;;;;;;;;;4973322;28;20038;-70
2021/12/07 10:30:50;;;;;;;1.60;1.50;;;;;;;;;;4958526;28;20058;-71
2021/12/07 10:33:16;;;;;;;2.15;1.60;;;;;;;;;;4968411;28;20026;-70
2021/12/07 10:35:41;;;;;;;3.67;1.88;;;;;;;;;;4951970;28;20022;-71
2021/12/07 10:38:10;;;;;;;6.05;2.45;;;;;;;;;;4972049;28;20015;-70
2021/12/07 10:40:36;;;;;;;1.98;1.75;;;;;;;;;;4973579;28;20100;-71
2021/12/07 10:43:02;;;;;;;2.75;1.63;;;;;;;;;;4971865;28;20599;-70
2021/12/07 10:45:27;;;;;;;3.30;1.92;;;;;;;;;;4973386;28;20042;-70
2021/12/07 10:47:53;;;;;;;2.15;1.73;;;;;;;;;;4954840;28;20135;-70
2021/12/07 10:50:19;;;;;;;2.20;1.60;;;;;;;;;;4967533;28;20106;-70
2021/12/07 10:52:45;;;;;;;4.53;1.80;;;;;;;;;;4972794;28;20058;-70
2021/12/07 10:55:25;;;;;;;1.92;1.40;;;;;;;;;;4962929;28;20089;-70
2021/12/07 10:57:56;;;;;;;6.72;1.73;;;;;;;;;;4973151;28;20033;-69
2021/12/07 11:00:33;;;;;;;3.47;1.60;;;;;;;;;;4971933;28;20102;-70
2021/12/07 11:03:00;;;;;;;2.33;1.75;;;;;;;;;;4967840;28;20098;-70
2021/12/07 11:05:29;;;;;;;2.88;1.50;;;;;;;;;;4970713;28;20023;-70
2021/12/07 11:07:54;;;;;;;8.20;1.70;;;;;;;;;;4968421;28;20025;-70
2021/12/07 11:10:29;;;;;;;2.25;1.38;;;;;;;;;;4973349;28;20030;-70
2021/12/07 11:13:05;;;;;;;1.67;1.50;;;;;;;;;;4964971;28;20512;-70
2021/12/07 11:15:31;;;;;;;2.15;1.50;;;;;;;;;;4966663;28;20031;-70
2021/12/07 11:17:59;;;;;;;3.63;1.70;;;;;;;;;;4969513;28;20054;-70
2021/12/07 11:20:26;;;;;;;4.25;2.03;;;;;;;;;;4952342;29;20031;-70
2021/12/07 11:22:54;;;;;;;2.63;1.63;;;;;;;;;;4961349;28;20031;-70
2021/12/07 11:31:24;;;;;;;1.65;1.55;;;;;;;;;;4963883;28;20093;-70
2021/12/07 11:33:52;;;;;;;6.07;1.80;;;;;;;;;;4972659;28;20128;-70
2021/12/07 11:36:20;;;;;;;3.05;1.70;;;;;;;;;;4972182;28;20031;-70
2021/12/07 11:38:45;;;;;;;3.20;1.70;;;;;;;;;;4972308;28;20081;-70
2021/12/07 11:41:20;;;;;;;3.13;1.90;;;;;;;;;;4972570;28;20026;-70
2021/12/07 11:43:52;;;;;;;4.72;1.95;;;;;;;;;;4964527;28;20038;-70
2021/12/07 11:46:19;;;;;;;4.20;1.55;;;;;;;;;;4972457;28;20093;-69
2021/12/07 11:48:44;;;;;;;2.90;1.63;;;;;;;;;;4963226;28;20034;-70
2021/12/07 11:51:10;;;;;;;1.90;1.70;;;;;;;;;;4972588;28;20389;-70
2021/12/07 11:53:35;;;;;;;2.40;1.50;;;;;;;;;;4972330;28;20481;-71
2021/12/07 11:56:00;;;;;;;2.72;1.40;;;;;;;;;;4960697;28;20030;-70
2021/12/07 11:58:27;;;;;;;2.20;1.40;;;;;;;;;;4966049;28;20497;-70
2021/12/07 12:00:54;;;;;;;5.80;1.83;;;;;;;;;;4958813;28;20449;-70
2021/12/07 12:03:24;;;;;;;3.55;1.67;;;;;;;;;;4971244;28;20656;-70
2021/12/07 12:05:50;;;;;;;4.28;1.63;;;;;;;;;;4970866;28;20031;-71
2021/12/07 12:08:19;;;;;;;4.47;1.80;;;;;;;;;;4968880;28;20055;-71
2021/12/07 12:11:07;;;;;;;3.28;1.50;;;;;;;;;;4971181;28;20033;-70
2021/12/07 12:13:56;;;;;;;5.22;1.90;;;;;;;;;;4968082;28;20121;-71
2021/12/07 12:16:25;;;;;;;1.95;1.45;;;;;;;;;;4968858;28;20503;-70
2021/12/07 12:19:28;;;;;;;3.03;1.42;;;;;;;;;;4970926;28;20030;-71
2021/12/07 12:21:58;;;;;;;4.38;1.70;;;;;;;;;;4967364;28;20022;-70
2021/12/07 12:24:48;;;;;;;7.40;1.60;;;;;;;;;;4950779;28;20085;-70
2021/12/07 12:27:22;;;;;;;3.92;1.27;;;;;;;;;;4967578;28;20027;-70
2021/12/07 12:29:50;;;;;;;1.52;1.40;;;;;;;;;;4963618;28;20023;-71
2021/12/07 12:32:29;;;;;;;5.93;1.60;;;;;;;;;;4966173;28;20047;-71
2021/12/07 12:34:54;;;;;;;5.15;1.50;;;;;;;;;;4970276;28;20081;-71
2021/12/07 12:37:22;;;;;;;2.15;1.33;;;;;;;;;;4965346;28;20422;-71
2021/12/07 12:39:55;;;;;;;1.85;1.25;;;;;;;;;;4972413;28;20042;-72
2021/12/07 12:42:41;;;;;;;2.97;1.70;;;;;;;;;;4972309;28;20031;-72
2021/12/07 12:45:11;;;;;;;3.40;1.20;;;;;;;;;;4972750;28;20493;-70
2021/12/07 12:47:38;;;;;;;5.35;2.20;;;;;;;;;;4972427;28;20042;-71
2021/12/07 12:50:31;;;;;;;2.17;1.63;;;;;;;;;;4958137;28;20037;-71
2021/12/07 12:53:07;;;;;;;7.00;1.73;;;;;;;;;;4959911;28;20093;-70
2021/12/07 12:55:58;;;;;;;3.60;1.67;;;;;;;;;;4970615;28;20039;-69
2021/12/07 12:58:38;;;;;;;2.65;1.33;;;;;;;;;;4972648;28;20030;-70
2021/12/07 13:01:20;;;;;;;2.47;1.50;;;;;;;;;;4967049;28;20050;-71
2021/12/07 13:03:59;;;;;;;1.40;1.30;;;;;;;;;;4967082;28;20056;-70
2021/12/07 13:06:25;;;;;;;1.88;1.25;;;;;;;;;;4969238;28;20023;-70
2021/12/07 13:09:03;;;;;;;2.13;1.20;;;;;;;;;;4975664;28;20030;-70
2021/12/07 13:12:07;;;;;;;1.30;1.20;;;;;;;;;;4974508;28;20023;-70
2021/12/07 13:14:38;;;;;;;3.75;1.70;;;;;;;;;;4966825;28;20042;-70
2021/12/07 13:17:05;;;;;;;5.30;1.65;;;;;;;;;;4973103;28;21072;-70
2021/12/07 13:19:30;;;;;;;2.78;1.58;;;;;;;;;;4966497;28;20042;-71
2021/12/07 13:21:57;;;;;;;3.58;1.60;;;;;;;;;;4989194;28;20027;-70
2021/12/07 13:24:36;;;;;;;4.15;1.50;;;;;;;;;;4973285;28;20117;-70
2021/12/07 13:27:11;;;;;;;2.30;1.48;;;;;;;;;;4965385;28;20049;-70
2021/12/07 13:29:37;;;;;;;3.13;1.30;;;;;;;;;;4973934;28;20430;-70
2021/12/07 13:32:03;;;;;;;2.28;1.20;;;;;;;;;;4972796;28;20049;-70
2021/12/07 13:34:34;;;;;;;2.00;1.27;;;;;;;;;;4973151;28;20398;-70
2021/12/07 13:37:04;;;;;;;3.95;1.40;;;;;;;;;;4965172;28;20038;-70
2021/12/07 13:39:37;;;;;;;1.50;1.23;;;;;;;;;;4960911;28;20031;-69
2021/12/07 13:42:17;;;;;;;1.45;1.20;;;;;;;;;;4957238;28;20027;-69
2021/12/07 13:44:43;;;;;;;2.85;1.65;;;;;;;;;;4966719;28;20511;-70
2021/12/07 13:47:19;;;;;;;2.17;1.33;;;;;;;;;;4969577;28;20039;-69
2021/12/07 13:50:04;;;;;;;1.70;1.20;;;;;;;;;;4965832;28;20050;-69
2021/12/07 13:52:32;;;;;;;1.50;1.20;;;;;;;;;;4970888;28;20057;-70
2021/12/07 13:54:58;;;;;;;2.65;1.30;;;;;;;;;;4970945;28;20027;-69
2021/12/07 13:57:26;;;;;;;2.05;1.20;;;;;;;;;;4967981;28;20027;-68
2021/12/07 14:00:01;;;;;;;3.08;1.60;;;;;;;;;;4964365;28;20035;-68
2021/12/07 14:02:26;;;;;;;2.17;1.20;;;;;;;;;;4951173;28;20036;-69
2021/12/07 14:04:59;;;;;;;1.85;1.30;;;;;;;;;;4949337;28;20575;-68
2021/12/07 14:07:24;;;;;;;3.28;1.10;;;;;;;;;;4949514;28;20033;-69
2021/12/07 14:09:50;;;;;;;2.13;1.48;;;;;;;;;;4953331;29;20035;-69
2021/12/07 14:12:21;;;;;;;4.22;1.23;;;;;;;;;;4954276;29;20427;-68
2021/12/07 14:14:46;;;;;;;4.00;1.40;;;;;;;;;;4953896;28;20023;-68
2021/12/07 14:17:12;;;;;;;3.50;1.10;;;;;;;;;;4954138;29;20390;-71
2021/12/07 14:19:37;;;;;;;1.58;1.23;;;;;;;;;;4953511;28;20475;-71
2021/12/07 14:22:03;;;;;;;4.28;1.33;;;;;;;;;;4954048;29;20046;-70
2021/12/07 14:24:28;;;;;;;5.03;1.55;;;;;;;;;;4956050;28;20335;-71
2021/12/07 14:26:54;;;;;;;3.15;1.30;;;;;;;;;;4953744;28;20031;-71
2021/12/07 14:29:21;;;;;;;2.88;1.55;;;;;;;;;;4963298;28;20118;-70
2021/12/07 14:31:49;;;;;;;1.73;1.13;;;;;;;;;;4951013;28;20091;-70
2021/12/07 14:34:24;;;;;;;4.00;1.25;;;;;;;;;;4954855;28;20031;-70
2021/12/07 14:36:58;;;;;;;3.28;1.40;;;;;;;;;;4952906;29;20031;-70
2021/12/07 14:39:33;;;;;;;2.80;1.30;;;;;;;;;;4951275;28;20073;-70
2021/12/07 14:42:06;;;;;;;3.50;1.38;;;;;;;;;;4952365;29;20038;-69
2021/12/07 14:44:33;;;;;;;3.33;1.40;;;;;;;;;;4950981;29;20035;-70
2021/12/07 14:47:04;;;;;;;2.83;1.30;;;;;;;;;;4952853;28;20035;-69
2021/12/07 14:49:29;;;;;;;3.33;1.35;;;;;;;;;;4939339;29;20150;-69
2021/12/07 14:51:54;;;;;;;3.88;1.40;;;;;;;;;;4953816;29;20110;-69
2021/12/07 14:54:20;;;;;;;3.35;1.33;;;;;;;;;;4953142;29;20105;-70
2021/12/07 14:56:46;;;;;;;4.03;1.58;;;;;;;;;;4953063;28;20478;-69
2021/12/07 14:59:13;;;;;;;3.58;1.42;;;;;;;;;;4953566;28;20363;-69
2021/12/07 15:01:43;;;;;;;4.40;1.90;;;;;;;;;;4951004;28;20046;-69
2021/12/07 15:04:10;;;;;;;2.70;1.73;;;;;;;;;;4950264;28;20031;-69
2021/12/07 15:06:36;;;;;;;3.28;1.63;;;;;;;;;;4949058;29;20023;-69
2021/12/07 15:09:06;;;;;;;5.93;1.70;;;;;;;;;;4967902;28;20032;-69
2021/12/07 15:11:41;;;;;;;2.80;1.35;;;;;;;;;;4951432;28;20542;-70
2021/12/07 15:14:07;;;;;;;3.95;1.50;;;;;;;;;;4951265;29;20050;-70
2021/12/07 15:16:36;;;;;;;3.55;1.45;;;;;;;;;;4952457;28;20118;-70
2021/12/07 15:19:01;;;;;;;4.13;2.33;;;;;;;;;;4952937;28;20027;-69
2021/12/07 15:21:28;;;;;;;5.40;1.92;;;;;;;;;;4948066;29;20039;-69
2021/12/07 15:23:54;;;;;;;4.60;1.85;;;;;;;;;;4953554;28;20035;-70
2021/12/07 15:26:22;;;;;;;5.35;1.50;;;;;;;;;;4952467;28;20031;-70
2021/12/07 15:29:11;;;;;;;2.60;1.50;;;;;;;;;;4957622;28;20027;-70
2021/12/07 15:31:44;;;;;;;6.95;1.45;;;;;;;;;;4949840;28;20522;-70
2021/12/07 15:34:10;;;;;;;5.63;1.52;;;;;;;;;;4943724;28;20438;-70
2021/12/07 15:36:40;;;;;;;8.63;7.72;;;;;;;;;;4949596;28;20038;-70
2021/12/07 15:39:06;;;;;;;2.97;2.65;;;;;;;;;;4948834;28;20047;-70
2021/12/07 15:41:31;;;;;;;7.78;2.30;;;;;;;;;;4950246;28;20102;-69
2021/12/07 15:43:57;;;;;;;3.70;2.03;;;;;;;;;;4950998;28;20118;-70
2021/12/07 15:46:22;;;;;;;4.22;1.90;;;;;;;;;;4946214;28;20035;-70
2021/12/07 15:48:47;;;;;;;3.38;2.00;;;;;;;;;;4958433;28;20102;-70
2021/12/07 15:51:13;;;;;;;4.25;2.00;;;;;;;;;;4951014;28;20031;-70
2021/12/07 15:53:39;;;;;;;15.60;2.50;;;;;;;;;;4952046;28;20081;-69
2021/12/07 15:56:25;;;;;;;5.43;2.53;;;;;;;;;;4950342;28;20027;-72
2021/12/07 15:58:51;;;;;;;5.57;2.20;;;;;;;;;;4952614;28;20486;-73
2021/12/07 16:01:17;;;;;;;3.92;1.70;;;;;;;;;;4956610;28;20042;-72
2021/12/07 16:03:44;;;;;;;4.38;2.13;;;;;;;;;;4969293;28;20026;-73
2021/12/07 16:06:22;;;;;;;10.07;3.47;;;;;;;;;;4968103;28;20477;-74
2021/12/07 16:08:48;;;;;;;3.45;1.63;;;;;;;;;;4953971;28;20036;-73
2021/12/07 16:11:18;;;;;;;4.20;1.73;;;;;;;;;;4965959;28;20027;-72
2021/12/07 16:13:48;;;;;;;4.47;2.10;;;;;;;;;;4964162;28;20035;-72
2021/12/07 16:16:18;;;;;;;11.55;2.88;;;;;;;;;;4971118;28;20039;-73
2021/12/07 16:18:44;;;;;;;8.88;2.50;;;;;;;;;;4968768;28;20029;-72
2021/12/07 16:21:09;;;;;;;11.57;4.00;;;;;;;;;;4970204;28;20118;-74
2021/12/07 16:23:37;;;;;;;11.48;4.10;;;;;;;;;;4972561;28;20034;-73
2021/12/07 16:26:03;;;;;;;6.40;4.00;;;;;;;;;;4966905;28;20453;-72
2021/12/07 16:28:30;;;;;;;5.13;3.15;;;;;;;;;;4970731;28;20031;-72
2021/12/07 16:30:55;;;;;;;8.23;2.97;;;;;;;;;;4986777;28;20035;-73
2021/12/07 16:33:21;;;;;;;6.00;2.83;;;;;;;;;;4973184;28;20038;-72
2021/12/07 16:35:46;;;;;;;5.40;2.67;;;;;;;;;;4970538;28;20037;-73
2021/12/07 16:38:11;;;;;;;9.90;3.40;;;;;;;;;;4970896;28;20023;-73
2021/12/07 16:40:37;;;;;;;8.85;3.05;;;;;;;;;;4956200;28;20023;-72